Airport View

Enter AWOS ICAO identifier for current METAR.

ex. KFNL

KPHT 190615Z AUTO 35015G20KT 2 1/2SM BR BKN007 BKN010 OVC030 09/08 A2961 RMK A01

19 Apr 2019 06:25

Frequency: 118.825

Phone: 731-644-0451

Other Area AWOS: KHZD - KCEY - KM25 - KUCY

TAF AMD KHOP 190454Z 1904/2006 24009KT 6000 -SHRA BKN003 OVC009 QNH2955INS TEMPO 1904/1905 29015G25KT 4800 -TSRA OVC010CB BECMG 1905/1906 33012KT 9000 -SHRA OVC008 QNH2958INS BECMG 1914/1915 33012KT 9000 -SHRA OVC005 QNH2956INS TX14/1904Z TN05/1923Z